Terminal Aerodrome Forecast
Issued by NWS Blacksburg, VA

Home | Current Version | Previous Version | Text Only | Print | Product List | Glossary On
Versions: 1 2 3 4 5 6 7 8 9 10 11 12 13 14 15 16 17 18 19 20 21 22 23 24 25 26
000
FTUS41 KRNK 061132
TAFDAN
TAF
KDAN 061132Z 0612/0712 32006KT P6SM OVC025
      TEMPO 0612/0615 4SM SHRA BR SCT025 OVC045
     FM061800 32010G18KT P6SM -SHRA OVC045
     FM062200 28006KT P6SM SCT025 BKN060=

USA.gov is the U.S. government's official web portal to all federal, state and local government web resources and services.